createdAt,value
2016-10-28T00:00:52.719Z,8.75
2016-10-28T00:02:02.608Z,8.75
2016-10-28T00:03:12.307Z,8.86
2016-10-28T00:04:22.158Z,8.75
2016-10-28T00:05:31.997Z,8.77
2016-10-28T00:06:42.350Z,8.74
2016-10-28T00:07:51.954Z,8.74
2016-10-28T00:09:02.210Z,8.69
2016-10-28T00:10:12.152Z,8.77
2016-10-28T00:11:22.720Z,8.74
2016-10-28T00:12:32.532Z,8.66
2016-10-28T00:13:42.366Z,8.59
2016-10-28T00:14:51.870Z,8.59
2016-10-28T00:16:01.695Z,8.66
2016-10-28T00:17:12.186Z,8.71
2016-10-28T00:18:21.618Z,8.72
2016-10-28T00:19:31.597Z,8.72
2016-10-28T00:20:41.128Z,8.78
2016-10-28T00:21:50.627Z,8.78
2016-10-28T00:23:00.393Z,8.74
2016-10-28T00:24:09.944Z,8.84
2016-10-28T00:25:19.684Z,8.84
2016-10-28T00:26:29.282Z,8.78
2016-10-28T00:27:39.057Z,8.78
2016-10-28T00:28:48.722Z,8.78
2016-10-28T00:29:58.683Z,8.77
2016-10-28T00:31:09.013Z,8.77
2016-10-28T00:32:18.734Z,8.69
2016-10-28T00:33:28.453Z,8.79
2016-10-28T00:34:38.314Z,8.72
2016-10-28T00:35:48.021Z,8.78
2016-10-28T00:36:58.064Z,8.72
2016-10-28T00:38:07.645Z,8.75
2016-10-28T00:39:17.292Z,8.71
2016-10-28T00:40:27.470Z,8.61
2016-10-28T00:41:37.365Z,8.63
2016-10-28T00:42:47.004Z,8.64
2016-10-28T00:43:56.501Z,8.66
2016-10-28T00:45:06.183Z,8.59
2016-10-28T00:46:16.264Z,8.59
2016-10-28T00:47:25.816Z,8.6
2016-10-28T00:48:35.369Z,8.64
2016-10-28T00:49:44.994Z,8.57
2016-10-28T00:50:54.573Z,8.57
2016-10-28T00:52:04.860Z,8.56
2016-10-28T00:53:14.350Z,8.61
2016-10-28T00:54:24.670Z,8.49
2016-10-28T00:55:34.397Z,8.38
2016-10-28T00:56:44.230Z,8.44
2016-10-28T00:57:54.613Z,8.45
2016-10-28T00:59:05.188Z,8.32
2016-10-28T01:00:16.142Z,8.38
2016-10-28T01:01:26.293Z,8.34
2016-10-28T01:02:36.220Z,8.23
2016-10-28T01:03:46.059Z,8.14
2016-10-28T01:04:55.855Z,8.11
2016-10-28T01:06:05.788Z,8.2
2016-10-28T01:07:15.297Z,8.2
2016-10-28T01:08:24.951Z,8.2
2016-10-28T01:09:35.339Z,8.35
2016-10-28T01:10:45.092Z,8.34
2016-10-28T01:11:54.613Z,8.32
2016-10-28T01:13:04.549Z,8.36
2016-10-28T01:14:14.190Z,8.45
2016-10-28T01:15:24.925Z,8.44
2016-10-28T01:16:34.896Z,8.44
2016-10-28T01:17:44.439Z,8.53
2016-10-28T01:18:54.208Z,8.59
2016-10-28T01:20:03.893Z,8.61
2016-10-28T01:21:14.103Z,8.6
2016-10-28T01:22:23.609Z,8.61
2016-10-28T01:23:33.567Z,8.63
2016-10-28T01:24:43.148Z,8.64
2016-10-28T01:26:22.469Z,8.66
2016-10-28T01:27:32.232Z,8.6
2016-10-28T01:28:42.387Z,8.72
2016-10-28T01:29:52.738Z,8.69
2016-10-28T01:31:02.331Z,8.77
2016-10-28T01:32:12.156Z,8.69
2016-10-28T01:33:21.684Z,8.66
2016-10-28T01:34:32.230Z,8.63
2016-10-28T01:35:42.246Z,8.63
2016-10-28T01:36:51.837Z,8.56
2016-10-28T01:38:01.733Z,8.57
2016-10-28T01:39:11.485Z,8.63
2016-10-28T01:40:21.442Z,8.59
2016-10-28T01:41:31.212Z,8.6
2016-10-28T01:42:41.405Z,8.6
2016-10-28T01:43:51.029Z,8.64
2016-10-28T01:45:01.339Z,8.68
2016-10-28T01:46:11.620Z,8.77
2016-10-28T01:47:21.224Z,8.75
2016-10-28T01:48:30.795Z,8.81
2016-10-28T01:49:40.656Z,8.79
2016-10-28T01:50:50.613Z,8.86
2016-10-28T01:52:00.872Z,8.92
2016-10-28T01:53:11.373Z,8.92
2016-10-28T01:54:21.436Z,8.93
2016-10-28T01:55:31.314Z,9
2016-10-28T01:56:41.282Z,9.02
2016-10-28T01:57:52.069Z,9.02
2016-10-28T01:59:02.629Z,9.03
2016-10-28T02:00:12.160Z,9.15
2016-10-28T02:01:22.551Z,9.16
2016-10-28T02:02:32.511Z,9.13
2016-10-28T02:03:42.426Z,9.22
2016-10-28T02:04:52.444Z,9.19
2016-10-28T02:06:02.110Z,9.16
2016-10-28T02:07:11.918Z,9.19
2016-10-28T02:08:21.520Z,9.16
2016-10-28T02:09:31.772Z,9.18
2016-10-28T02:10:41.681Z,9.21
2016-10-28T02:11:51.211Z,9.26
2016-10-28T02:13:00.932Z,9.19
2016-10-28T02:14:10.491Z,9.26
2016-10-28T02:15:20.801Z,9.21
2016-10-28T02:16:30.719Z,9.22
2016-10-28T02:17:41.284Z,9.21
2016-10-28T02:18:50.769Z,9.19
2016-10-28T02:20:00.209Z,9.24
2016-10-28T02:21:10.334Z,9.27
2016-10-28T02:22:19.891Z,9.26
2016-10-28T02:23:29.468Z,9.26
2016-10-28T02:24:39.067Z,9.26
2016-10-28T02:25:48.942Z,9.21
2016-10-28T02:26:58.940Z,9.26
2016-10-28T02:28:08.596Z,9.26
2016-10-28T02:29:18.433Z,9.26
2016-10-28T02:30:28.573Z,9.26
2016-10-28T02:34:01.209Z,9.29
2016-10-28T02:35:10.949Z,9.26
2016-10-28T02:36:20.661Z,9.21
2016-10-28T02:37:30.695Z,9.16
2016-10-28T02:38:40.812Z,9.24
2016-10-28T02:39:50.840Z,9.26
2016-10-28T02:41:00.386Z,9.13
2016-10-28T02:42:10.239Z,9.19
2016-10-28T02:43:20.502Z,9.12
2016-10-28T02:44:30.276Z,9.02
2016-10-28T02:45:39.715Z,9.05
2016-10-28T02:46:49.874Z,8.96
2016-10-28T02:47:59.778Z,8.95
2016-10-28T02:49:09.275Z,8.92
2016-10-28T02:50:48.281Z,9.08
2016-10-28T02:51:57.739Z,9.02
2016-10-28T02:53:07.414Z,9
2016-10-28T02:54:18.023Z,9.02
2016-10-28T02:55:28.478Z,9.03
2016-10-28T02:56:38.481Z,9.02
2016-10-28T02:57:47.979Z,9
2016-10-28T02:58:57.689Z,9.02
2016-10-28T03:00:07.519Z,9.08
2016-10-28T03:01:17.466Z,9.08
2016-10-28T03:02:26.940Z,9.03
2016-10-28T03:03:36.767Z,9.02
2016-10-28T03:04:46.835Z,9.18
2016-10-28T03:05:56.395Z,9.11
2016-10-28T03:07:06.549Z,9.12
2016-10-28T03:08:16.559Z,9.03
2016-10-28T03:09:27.031Z,9.11
2016-10-28T03:10:36.799Z,9.19
2016-10-28T03:11:47.218Z,9.13
2016-10-28T03:12:57.904Z,9.18
2016-10-28T03:14:07.785Z,9.26
2016-10-28T03:15:18.166Z,9.24
2016-10-28T03:16:28.202Z,9.21
2016-10-28T03:17:38.349Z,9.16
2016-10-28T03:18:48.346Z,9.21
2016-10-28T03:19:58.032Z,9.19
2016-10-28T03:21:07.615Z,9.18
2016-10-28T03:22:17.654Z,9.26
2016-10-28T03:23:27.446Z,9.19
2016-10-28T03:24:37.398Z,9.19
2016-10-28T03:25:47.523Z,9.21
2016-10-28T03:26:57.142Z,9.3
2016-10-28T03:28:07.163Z,9.31
2016-10-28T03:29:17.770Z,9.24
2016-10-28T03:30:27.618Z,9.27
2016-10-28T03:31:37.295Z,9.21
2016-10-28T03:32:47.133Z,9.16
2016-10-28T03:33:57.165Z,9.18
2016-10-28T03:35:06.767Z,9.18
2016-10-28T03:36:17.668Z,9.19
2016-10-28T03:37:27.562Z,9.19
2016-10-28T03:38:37.314Z,9.12
2016-10-28T03:39:47.710Z,9.19
2016-10-28T03:40:57.353Z,9.19
2016-10-28T03:42:07.905Z,9.18
2016-10-28T03:43:17.804Z,9.13
2016-10-28T03:44:27.962Z,9.11
2016-10-28T03:45:38.586Z,9.18
2016-10-28T03:46:48.760Z,9.19
2016-10-28T03:47:58.620Z,9.19
2016-10-28T03:49:23.929Z,9.15
2016-10-28T03:50:33.971Z,9.29
2016-10-28T03:51:43.472Z,9.3
2016-10-28T03:52:53.144Z,9.22
2016-10-28T03:54:02.834Z,9.29
2016-10-28T03:55:12.518Z,9.36
2016-10-28T03:56:21.985Z,9.39
2016-10-28T03:57:31.764Z,9.42
2016-10-28T03:58:41.348Z,9.42
2016-10-28T03:59:50.798Z,9.42
2016-10-28T04:01:15.656Z,9.34
2016-10-28T04:02:25.087Z,9.45
2016-10-28T04:03:34.611Z,9.34
2016-10-28T04:04:44.377Z,9.39
2016-10-28T04:05:54.985Z,9.4
2016-10-28T04:07:04.747Z,9.37
2016-10-28T04:08:14.737Z,9.39
2016-10-28T04:09:24.477Z,9.42
2016-10-28T04:10:34.382Z,9.36
2016-10-28T04:11:44.103Z,9.31
2016-10-28T04:12:54.009Z,9.3
2016-10-28T04:14:03.550Z,9.29
2016-10-28T04:15:13.143Z,9.31
2016-10-28T04:16:22.855Z,9.29
2016-10-28T04:17:33.008Z,9.29
2016-10-28T04:18:42.831Z,9.42
2016-10-28T04:19:52.393Z,9.4
2016-10-28T04:21:02.278Z,9.37
2016-10-28T04:22:12.210Z,9.48
2016-10-28T04:23:22.492Z,9.74
2016-10-28T04:24:32.048Z,9.88
2016-10-28T04:25:42.347Z,9.92
2016-10-28T04:26:52.436Z,10
2016-10-28T04:28:02.079Z,9.9
2016-10-28T04:29:11.884Z,9.8
2016-10-28T04:30:22.654Z,9.76
2016-10-28T04:31:33.070Z,9.66
2016-10-28T04:32:43.357Z,9.63
2016-10-28T04:34:08.206Z,9.67
2016-10-28T04:35:18.086Z,9.69
2016-10-28T04:36:28.158Z,9.64
2016-10-28T04:37:37.933Z,9.67
2016-10-28T04:38:47.741Z,9.66
2016-10-28T04:39:57.750Z,9.59
2016-10-28T04:41:09.083Z,9.62
2016-10-28T04:42:18.987Z,9.67
2016-10-28T04:43:28.768Z,9.64
2016-10-28T04:44:40.407Z,9.66
2016-10-28T04:45:50.454Z,9.67
2016-10-28T04:47:00.511Z,9.52
2016-10-28T04:48:10.848Z,9.56
2016-10-28T04:49:20.954Z,9.63
2016-10-28T04:50:30.448Z,9.62
2016-10-28T04:51:40.089Z,9.72
2016-10-28T04:52:50.121Z,9.66
2016-10-28T04:53:59.744Z,9.7
2016-10-28T04:55:10.526Z,9.8
2016-10-28T04:56:20.683Z,9.77
2016-10-28T04:57:30.440Z,9.73
2016-10-28T04:58:40.540Z,9.74
2016-10-28T04:59:50.803Z,9.77
2016-10-28T05:01:00.840Z,9.8
2016-10-28T05:02:10.743Z,9.77
2016-10-28T05:03:20.344Z,9.77
2016-10-28T05:04:31.114Z,9.7
2016-10-28T05:05:40.674Z,9.69
2016-10-28T05:06:50.179Z,9.66
2016-10-28T05:07:59.708Z,9.54
2016-10-28T05:09:09.592Z,9.59
2016-10-28T05:10:19.408Z,9.55
2016-10-28T05:11:29.458Z,9.54
2016-10-28T05:12:39.057Z,9.54
2016-10-28T05:13:48.556Z,9.54
2016-10-28T05:14:58.170Z,9.59
2016-10-28T05:16:08.448Z,9.52
2016-10-28T05:17:17.999Z,9.55
2016-10-28T05:18:27.836Z,9.54
2016-10-28T05:19:37.344Z,9.55
2016-10-28T05:20:47.198Z,9.54
2016-10-28T05:22:11.724Z,9.52
2016-10-28T05:23:22.244Z,9.54
2016-10-28T05:24:32.100Z,9.62
2016-10-28T05:25:41.720Z,9.58
2016-10-28T05:26:51.311Z,9.58
2016-10-28T05:28:01.471Z,9.72
2016-10-28T05:29:11.128Z,9.55
2016-10-28T05:30:21.110Z,9.58
2016-10-28T05:31:30.682Z,9.55
2016-10-28T05:32:40.699Z,9.58
2016-10-28T05:33:51.003Z,9.48
2016-10-28T05:35:01.173Z,9.45
2016-10-28T05:36:10.788Z,9.48
2016-10-28T05:37:20.365Z,9.42
2016-10-28T05:38:29.917Z,9.49
2016-10-28T05:39:39.606Z,9.44
2016-10-28T05:40:50.875Z,9.48
2016-10-28T05:42:01.108Z,9.47
2016-10-28T05:43:10.652Z,9.55
2016-10-28T05:44:21.006Z,9.51
2016-10-28T05:45:31.162Z,9.54
2016-10-28T05:46:40.766Z,9.48
2016-10-28T05:47:50.324Z,9.37
2016-10-28T05:48:59.818Z,9.45
2016-10-28T05:50:09.406Z,9.4
2016-10-28T05:51:19.140Z,9.52
2016-10-28T05:52:28.975Z,9.42
2016-10-28T05:53:38.916Z,9.48
2016-10-28T05:54:48.800Z,9.48
2016-10-28T05:56:13.492Z,9.55
2016-10-28T05:57:23.313Z,9.55
2016-10-28T05:58:32.948Z,9.59
2016-10-28T05:59:43.365Z,9.66
2016-10-28T06:00:52.976Z,9.7
2016-10-28T06:02:02.733Z,9.64
2016-10-28T06:03:12.890Z,9.67
2016-10-28T06:04:22.722Z,9.66
2016-10-28T06:05:32.347Z,9.55
2016-10-28T06:06:41.965Z,9.59
2016-10-28T06:07:52.250Z,9.51
2016-10-28T06:09:02.560Z,9.66
2016-10-28T06:10:12.926Z,9.67
2016-10-28T06:11:22.546Z,9.69
2016-10-28T06:12:32.332Z,9.69
2016-10-28T06:13:42.003Z,9.77
2016-10-28T06:14:52.382Z,9.73
2016-10-28T06:16:02.492Z,9.74
2016-10-28T06:17:12.563Z,9.82
2016-10-28T06:18:22.253Z,9.92
2016-10-28T06:19:32.518Z,9.9
2016-10-28T06:20:42.716Z,9.85
2016-10-28T06:21:53.445Z,9.8
2016-10-28T06:23:03.118Z,9.85
2016-10-28T06:24:13.428Z,9.9
2016-10-28T06:25:23.526Z,9.85
2016-10-28T06:26:33.842Z,9.94
2016-10-28T06:27:43.401Z,9.94
2016-10-28T06:28:53.924Z,9.97
2016-10-28T06:30:04.124Z,9.95
2016-10-28T06:31:14.922Z,9.94
2016-10-28T06:32:25.464Z,9.95
2016-10-28T06:33:35.682Z,9.92
2016-10-28T06:34:46.431Z,9.99
2016-10-28T06:35:58.143Z,9.94
2016-10-28T06:37:07.776Z,9.92
2016-10-28T06:38:17.708Z,10.02
2016-10-28T06:39:27.382Z,10.03
2016-10-28T06:40:37.393Z,10.1
2016-10-28T06:41:47.379Z,10.06
2016-10-28T06:42:56.976Z,10.06
2016-10-28T06:44:06.986Z,10.1
2016-10-28T06:45:16.926Z,10.06
2016-10-28T06:46:27.143Z,10.06
2016-10-28T06:47:37.432Z,10.02
2016-10-28T06:48:47.874Z,10.03
2016-10-28T06:49:57.676Z,10.1
2016-10-28T06:51:07.402Z,10.06
2016-10-28T06:52:17.104Z,10.03
2016-10-28T06:53:27.791Z,10.05
2016-10-28T06:56:02.528Z,10.07
2016-10-28T06:57:12.200Z,10.17
2016-10-28T06:58:22.378Z,10.2
2016-10-28T06:59:32.025Z,10.07
2016-10-28T07:00:41.798Z,10.1
2016-10-28T07:01:52.108Z,10.13
2016-10-28T07:03:02.379Z,10.02
2016-10-28T07:04:12.133Z,10.1
2016-10-28T07:05:21.818Z,10.06
2016-10-28T07:06:31.436Z,10.07
2016-10-28T07:07:41.486Z,10.02
2016-10-28T07:08:51.542Z,10.03
2016-10-28T07:10:01.797Z,10.05
2016-10-28T07:11:11.942Z,9.92
2016-10-28T07:12:22.965Z,10.02
2016-10-28T07:13:33.254Z,10.07
2016-10-28T07:14:42.899Z,10.06
2016-10-28T07:15:52.792Z,10.13
2016-10-28T07:17:02.957Z,10.03
2016-10-28T07:18:12.608Z,10.13
2016-10-28T07:19:22.862Z,10.09
2016-10-28T07:20:33.087Z,10.17
2016-10-28T07:21:43.154Z,10.2
2016-10-28T07:22:53.561Z,10.1
2016-10-28T07:24:03.238Z,10.13
2016-10-28T07:25:13.326Z,10.24
2016-10-28T07:26:22.838Z,10.18
2016-10-28T07:27:32.425Z,10.18
2016-10-28T07:28:42.070Z,10.31
2016-10-28T07:29:51.664Z,10.23
2016-10-28T07:31:02.250Z,10.21
2016-10-28T07:32:11.924Z,10.23
2016-10-28T07:33:21.916Z,10.24
2016-10-28T07:34:32.003Z,10.24
2016-10-28T07:35:42.658Z,10.21
2016-10-28T07:36:53.016Z,10.17
2016-10-28T07:38:02.874Z,10.25
2016-10-28T07:39:13.035Z,10.23
2016-10-28T07:40:23.268Z,10.27
2016-10-28T07:41:33.382Z,10.3
2016-10-28T07:42:43.529Z,10.3
2016-10-28T07:43:53.586Z,10.33
2016-10-28T07:45:03.302Z,10.38
2016-10-28T07:46:13.316Z,10.36
2016-10-28T07:47:23.101Z,10.42
2016-10-28T07:48:33.862Z,10.49
2016-10-28T07:49:44.398Z,10.51
2016-10-28T07:50:54.892Z,10.55
2016-10-28T07:52:04.992Z,10.53
2016-10-28T07:53:15.049Z,10.51
2016-10-28T07:54:24.937Z,10.53
2016-10-28T07:55:35.816Z,10.68
2016-10-28T07:56:46.134Z,10.65
2016-10-28T07:57:55.737Z,10.67
2016-10-28T07:59:05.354Z,10.64
2016-10-28T08:00:15.621Z,10.67
2016-10-28T08:01:25.670Z,10.62
2016-10-28T08:02:36.430Z,10.67
2016-10-28T08:03:46.182Z,10.69
2016-10-28T08:04:55.805Z,10.67
2016-10-28T08:06:06.043Z,10.64
2016-10-28T08:07:15.909Z,10.68
2016-10-28T08:08:25.541Z,10.59
2016-10-28T08:09:35.377Z,10.61
2016-10-28T08:10:44.977Z,10.55
2016-10-28T08:11:54.797Z,10.65
2016-10-28T08:13:04.657Z,10.64
2016-10-28T08:14:14.219Z,10.58
2016-10-28T08:15:23.711Z,10.58
2016-10-28T08:16:33.451Z,10.64
2016-10-28T08:17:45.084Z,10.68
2016-10-28T08:18:54.581Z,10.65
2016-10-28T08:20:04.160Z,10.65
2016-10-28T08:21:14.006Z,10.67
2016-10-28T08:22:23.594Z,10.65
2016-10-28T08:23:33.511Z,10.68
2016-10-28T08:24:44.070Z,10.71
2016-10-28T08:25:56.458Z,10.72
2016-10-28T08:27:06.919Z,10.67
2016-10-28T08:28:17.215Z,10.72
2016-10-28T08:29:27.542Z,10.68
2016-10-28T08:30:38.301Z,10.69
2016-10-28T08:31:48.355Z,10.69
2016-10-28T08:32:58.339Z,10.71
2016-10-28T08:34:08.903Z,10.69
2016-10-28T08:35:20.547Z,10.72
2016-10-28T08:36:33.436Z,10.65
2016-10-28T08:37:44.345Z,10.72
2016-10-28T08:38:55.279Z,10.76
2016-10-28T08:40:06.384Z,10.8
2016-10-28T08:41:17.748Z,10.79
2016-10-28T08:42:28.877Z,10.87
2016-10-28T08:43:39.435Z,10.89
2016-10-28T08:44:49.396Z,10.89
2016-10-28T08:45:59.439Z,10.9
2016-10-28T08:47:09.937Z,11.1
2016-10-28T08:48:19.935Z,11.07
2016-10-28T08:49:30.247Z,11.15
2016-10-28T08:50:40.743Z,11.12
2016-10-28T08:51:52.176Z,11.22
2016-10-28T08:53:02.985Z,11.2
2016-10-28T08:54:13.696Z,11.18
2016-10-28T08:55:25.061Z,11.23
2016-10-28T08:56:39.015Z,11.23
2016-10-28T08:57:49.857Z,11.22
2016-10-28T09:00:27.173Z,11.23
2016-10-28T09:01:38.179Z,11.12
2016-10-28T09:02:47.987Z,10.98
2016-10-28T09:03:58.560Z,11.04
2016-10-28T09:05:10.102Z,11
2016-10-28T09:06:22.102Z,10.92
2016-10-28T09:07:33.066Z,10.9
2016-10-28T09:08:43.616Z,10.92
2016-10-28T09:09:55.435Z,11.04
2016-10-28T09:11:05.652Z,11.04
2016-10-28T09:12:15.906Z,11.13
2016-10-28T09:13:25.841Z,11.2
2016-10-28T09:14:35.525Z,11.22
2016-10-28T09:15:45.248Z,11.22
2016-10-28T09:16:55.719Z,11.2
2016-10-28T09:18:05.646Z,11.18
2016-10-28T09:19:15.857Z,11.18
2016-10-28T09:20:25.976Z,11.2
2016-10-28T09:21:35.913Z,11.19
2016-10-28T09:22:45.985Z,11.16
2016-10-28T09:23:55.962Z,11.12
2016-10-28T09:25:05.979Z,11.12
2016-10-28T09:26:16.091Z,11.12
2016-10-28T09:27:25.943Z,11.13
2016-10-28T09:28:36.436Z,11.1
2016-10-28T09:29:46.777Z,11.23
2016-10-28T09:30:57.035Z,11.1
2016-10-28T09:32:06.950Z,11.23
2016-10-28T09:33:16.922Z,11.19
2016-10-28T09:34:26.949Z,11.26
2016-10-28T09:35:37.281Z,11.31
2016-10-28T09:36:47.351Z,11.31
2016-10-28T09:37:58.182Z,11.33
2016-10-28T09:39:08.057Z,11.26
2016-10-28T09:40:18.042Z,11.38
2016-10-28T09:41:28.628Z,11.3
2016-10-28T09:42:38.643Z,11.41
2016-10-28T09:43:48.313Z,11.48
2016-10-28T09:44:57.954Z,11.41
2016-10-28T09:46:08.367Z,11.53
2016-10-28T09:47:18.198Z,11.44
2016-10-28T09:48:28.136Z,11.48
2016-10-28T09:49:38.929Z,11.43
2016-10-28T09:50:48.543Z,11.48
2016-10-28T09:51:59.374Z,11.43
2016-10-28T09:53:10.211Z,11.48
2016-10-28T09:54:19.851Z,11.49
2016-10-28T09:55:29.508Z,11.45
2016-10-28T09:56:39.364Z,11.53
2016-10-28T09:57:49.403Z,11.49
2016-10-28T09:58:59.190Z,11.51
2016-10-28T10:00:08.841Z,11.63
2016-10-28T10:01:18.411Z,11.58
2016-10-28T10:02:28.451Z,11.73
2016-10-28T10:03:38.855Z,11.81
2016-10-28T10:05:03.176Z,11.77
2016-10-28T10:06:13.237Z,11.77
2016-10-28T10:07:23.523Z,11.8
2016-10-28T10:08:33.024Z,11.88
2016-10-28T10:09:42.986Z,11.91
2016-10-28T10:10:52.840Z,11.8
2016-10-28T10:12:03.039Z,11.68
2016-10-28T10:13:13.899Z,11.7
2016-10-28T10:14:23.866Z,11.7
2016-10-28T10:15:48.532Z,11.77
2016-10-28T10:16:59.019Z,11.8
2016-10-28T10:18:09.123Z,11.78
2016-10-28T10:19:18.908Z,11.71
2016-10-28T10:20:28.568Z,11.86
2016-10-28T10:21:38.765Z,11.81
2016-10-28T10:22:49.197Z,11.81
2016-10-28T10:23:59.058Z,11.8
2016-10-28T10:25:08.712Z,11.73
2016-10-28T10:26:19.120Z,11.74
2016-10-28T10:27:29.184Z,11.81
2016-10-28T10:28:38.840Z,12
2016-10-28T10:29:48.752Z,12
2016-10-28T10:30:58.503Z,11.99
2016-10-28T10:32:08.415Z,12.02
2016-10-28T10:33:19.741Z,11.99
2016-10-28T10:34:29.698Z,12.1
2016-10-28T10:35:39.325Z,12.11
2016-10-28T10:36:49.168Z,12.08
2016-10-28T10:37:58.951Z,11.99
2016-10-28T10:39:08.866Z,12.12
2016-10-28T10:40:19.215Z,12.07
2016-10-28T10:41:28.955Z,12.02
2016-10-28T10:42:39.140Z,12.1
2016-10-28T10:43:48.654Z,12.03
2016-10-28T10:44:59.415Z,12.03
2016-10-28T15:57:21.238Z,23.74
2016-10-28T15:58:31.020Z,23.77
2016-10-28T15:59:40.317Z,23.74
2016-10-28T16:00:49.368Z,23.76
2016-10-28T16:01:58.441Z,23.73
2016-10-28T16:03:07.641Z,23.79
2016-10-28T16:04:16.773Z,23.81
2016-10-28T16:05:25.923Z,23.86
2016-10-28T16:06:35.102Z,23.77
2016-10-28T16:07:33.550Z,23.88
2016-10-28T16:08:44.618Z,23.86
2016-10-28T16:09:55.800Z,23.82
2016-10-28T16:11:09.891Z,23.88
2016-10-28T16:12:15.796Z,23.82
2016-10-28T16:16:33.140Z,21.26
2016-10-28T16:17:39.799Z,19.07
2016-10-28T16:18:49.680Z,17.42
2016-10-28T16:19:55.932Z,16.59
2016-10-28T16:21:02.362Z,15.9
2016-10-28T16:22:09.525Z,15.44
2016-10-28T16:23:16.664Z,15.1
2016-10-28T16:24:23.412Z,14.85
2016-10-28T16:25:29.833Z,14.55
2016-10-28T16:26:37.078Z,14.48
2016-10-28T16:27:44.017Z,14.3
2016-10-28T16:28:52.711Z,14.23
2016-10-28T16:29:59.824Z,14.16
2016-10-28T16:31:06.633Z,14.11
2016-10-28T16:32:15.152Z,14.01
2016-10-28T16:33:22.205Z,13.93
2016-10-28T16:34:28.762Z,13.94
2016-10-28T16:35:35.426Z,13.91
2016-10-28T16:36:44.443Z,13.86
2016-10-28T16:37:51.972Z,13.8
2016-10-28T16:38:58.309Z,13.73
2016-10-28T16:40:05.258Z,13.87
2016-10-28T16:41:12.007Z,13.67
2016-10-28T16:42:18.670Z,13.71
2016-10-28T16:43:25.238Z,13.7
2016-10-28T16:44:32.387Z,13.65
2016-10-28T16:45:38.658Z,13.71
2016-10-28T16:46:45.750Z,13.65
2016-10-28T16:47:52.103Z,13.64
2016-10-28T16:48:58.600Z,13.67
2016-10-28T16:50:05.853Z,13.7
2016-10-28T16:51:13.716Z,13.62
2016-10-28T16:52:35.273Z,13.7
2016-10-28T16:53:56.547Z,13.7
2016-10-28T16:55:04.642Z,13.68
2016-10-28T16:56:12.429Z,13.62
2016-10-28T16:57:33.935Z,13.65
2016-10-28T16:58:40.243Z,13.68
2016-10-28T16:59:50.737Z,13.73
2016-10-28T17:00:58.225Z,13.73
2016-10-28T17:02:05.069Z,13.68
2016-10-28T17:03:11.917Z,13.7
2016-10-28T17:04:17.989Z,13.61
2016-10-28T17:05:24.329Z,13.61
2016-10-28T17:06:30.898Z,13.6
2016-10-28T17:10:11.962Z,13.64
2016-10-28T17:11:18.951Z,13.6
2016-10-28T17:12:25.413Z,13.54
2016-10-28T17:13:32.154Z,13.52
2016-10-28T17:14:38.768Z,13.39
2016-10-28T17:15:45.091Z,13.45
2016-10-28T17:16:51.649Z,13.45
2016-10-28T17:17:58.139Z,13.43
2016-10-28T17:19:04.505Z,13.4
2016-10-28T17:20:11.526Z,13.43
2016-10-28T17:21:18.664Z,13.45
2016-10-28T17:22:25.316Z,13.52
2016-10-28T17:23:32.799Z,13.57
2016-10-28T17:24:39.210Z,13.64
2016-10-28T17:25:45.512Z,13.62
2016-10-28T17:26:52.099Z,13.67
2016-10-28T17:27:58.640Z,13.64
2016-10-28T17:29:05.173Z,13.67
2016-10-28T17:30:11.738Z,13.62
2016-10-28T17:31:18.129Z,13.68
2016-10-28T17:32:25.496Z,13.75
2016-10-28T17:33:32.413Z,13.73
2016-10-28T17:34:38.852Z,13.75
2016-10-28T17:35:45.203Z,13.68
2016-10-28T17:39:26.289Z,13.6
2016-10-28T17:40:32.414Z,13.6
2016-10-28T17:41:38.832Z,13.55
2016-10-28T17:42:44.988Z,13.55
2016-10-28T17:43:51.748Z,13.52
2016-10-28T17:44:58.815Z,13.55
2016-10-28T17:46:05.705Z,13.54
2016-10-28T17:47:11.809Z,13.58
2016-10-28T17:48:19.830Z,13.54
2016-10-28T17:49:27.516Z,13.49
2016-10-28T17:50:34.584Z,13.4
2016-10-28T17:51:41.447Z,13.45
2016-10-28T17:52:48.050Z,13.42
2016-10-28T17:53:54.583Z,13.42
2016-10-28T17:55:00.984Z,13.37
2016-10-28T17:56:07.923Z,13.37
2016-10-28T17:57:14.626Z,13.36
2016-10-28T17:58:21.974Z,13.21
2016-10-28T17:59:29.502Z,13.36
2016-10-28T18:00:36.944Z,13.33
2016-10-28T18:01:44.494Z,13.26
2016-10-28T18:02:51.289Z,13.26
2016-10-28T18:03:57.525Z,13.27
2016-10-28T18:05:04.063Z,13.2
2016-10-28T18:06:10.811Z,13.37
2016-10-28T18:07:18.354Z,13.23
2016-10-28T18:08:24.555Z,13.33
2016-10-28T18:09:30.972Z,13.24
2016-10-28T18:10:37.762Z,13.28
2016-10-28T18:11:44.470Z,13.28
2016-10-28T18:13:05.642Z,13.37
2016-10-28T18:14:13.952Z,13.42
2016-10-28T18:15:35.324Z,13.46
2016-10-28T18:16:41.662Z,13.39
2016-10-28T18:17:48.467Z,13.33
2016-10-28T18:18:56.901Z,13.43
2016-10-28T18:20:04.021Z,13.46
2016-10-28T18:21:13.537Z,13.47
2016-10-28T18:22:21.556Z,13.36
2016-10-28T18:23:29.475Z,13.43
2016-10-28T18:24:36.726Z,13.39
2016-10-28T18:25:44.143Z,13.42
2016-10-28T18:26:51.632Z,13.39
2016-10-28T18:27:59.782Z,13.4
2016-10-28T18:29:06.787Z,13.37
2016-10-28T18:31:50.106Z,13.24
2016-10-28T18:32:58.023Z,13.37
2016-10-28T18:34:05.333Z,13.21
2016-10-28T18:35:12.115Z,13.33
2016-10-28T18:36:33.946Z,13.11
2016-10-28T18:37:41.756Z,13.17
2016-10-28T18:38:49.372Z,13.17
2016-10-28T18:39:56.674Z,13.13
2016-10-28T18:41:03.939Z,13.02
2016-10-28T18:42:11.447Z,12.99
2016-10-28T18:43:18.531Z,13.13
2016-10-28T18:45:47.991Z,13.12
2016-10-28T18:46:54.343Z,13.13
2016-10-28T18:48:01.032Z,13.2
2016-10-28T18:49:07.782Z,13.2
2016-10-28T18:50:14.018Z,13.17
2016-10-28T18:51:20.987Z,13.19
2016-10-28T18:52:28.147Z,13.21
2016-10-28T18:53:34.650Z,13.2
2016-10-28T18:54:41.490Z,13.12
2016-10-28T18:55:48.205Z,13.21
2016-10-28T18:56:55.245Z,13.21
2016-10-28T18:58:01.487Z,13.24
2016-10-28T18:59:09.042Z,13.2
2016-10-28T19:00:16.979Z,13.2
2016-10-28T19:01:23.651Z,13.24
2016-10-28T19:02:30.134Z,13.3
2016-10-28T19:03:36.819Z,13.23
2016-10-28T19:04:43.730Z,13.2
2016-10-28T19:05:50.211Z,13.09
2016-10-28T19:06:56.483Z,13.21
2016-10-28T19:08:03.258Z,13.24
2016-10-28T19:09:09.840Z,13.16
2016-10-28T19:10:17.121Z,13.17
2016-10-28T19:11:24.018Z,13.09
2016-10-28T19:12:31.454Z,13.2
2016-10-28T19:13:39.647Z,13.19
2016-10-28T19:14:47.467Z,13.19
2016-10-28T19:15:54.715Z,13.13
2016-10-28T19:17:01.871Z,13.2
2016-10-28T19:18:09.037Z,13.05
2016-10-28T19:19:15.571Z,13.12
2016-10-28T19:20:22.961Z,13.16
2016-10-28T19:21:30.576Z,13.13
2016-10-28T19:22:37.912Z,13.08
2016-10-28T19:23:45.018Z,13.11
2016-10-28T19:24:51.685Z,13.11
2016-10-28T19:25:58.440Z,13.09
2016-10-28T19:27:05.358Z,13.16
2016-10-28T19:28:13.689Z,13.24
2016-10-28T19:29:20.432Z,13.13
2016-10-28T19:30:27.562Z,13.13
2016-10-28T19:31:33.813Z,13.24
2016-10-28T19:32:40.582Z,13.2
2016-10-28T19:35:23.309Z,13.23
2016-10-28T19:36:29.984Z,13.26
2016-10-28T19:37:36.979Z,13.11
2016-10-28T19:38:43.999Z,13.24
2016-10-28T19:39:51.256Z,13.11
2016-10-28T19:40:58.056Z,13.23
2016-10-28T19:42:05.464Z,13.2
2016-10-28T19:43:26.657Z,13.09
2016-10-28T19:44:35.712Z,13.09
2016-10-28T19:45:42.420Z,13.17
2016-10-28T19:47:03.424Z,13.17
2016-10-28T19:48:09.753Z,13.17
2016-10-28T19:49:16.811Z,13.16
2016-10-28T19:50:25.069Z,13.13
2016-10-28T19:51:31.436Z,13.12
2016-10-28T19:52:38.112Z,13.16
2016-10-28T19:53:44.592Z,13.03
2016-10-28T19:54:50.948Z,13.06
2016-10-28T19:55:57.830Z,13.09
2016-10-28T19:57:04.845Z,13.08
2016-10-28T19:58:11.100Z,13.03
2016-10-28T19:59:17.344Z,13.08
2016-10-28T20:00:23.834Z,12.95
2016-10-28T20:01:30.319Z,13.02
2016-10-28T20:02:36.969Z,13.03
2016-10-28T20:03:43.442Z,13.01
2016-10-28T20:04:50.974Z,12.99
2016-10-28T20:05:58.132Z,12.99
2016-10-28T20:07:04.900Z,13.05
2016-10-28T20:08:11.900Z,13.02
2016-10-28T20:09:18.153Z,13.01
2016-10-28T20:10:24.990Z,12.95
2016-10-28T20:11:31.871Z,13.02
2016-10-28T20:12:38.481Z,13.05
2016-10-28T20:13:44.911Z,12.98
2016-10-28T20:14:51.267Z,13.01
2016-10-28T20:15:57.778Z,12.93
2016-10-28T20:17:04.012Z,12.95
2016-10-28T20:18:10.812Z,12.98
2016-10-28T20:19:17.458Z,13.02
2016-10-28T20:20:24.014Z,13.01
2016-10-28T20:21:30.396Z,12.98
2016-10-28T20:22:37.440Z,12.94
2016-10-28T20:23:44.053Z,12.9
2016-10-28T20:24:50.748Z,12.98
2016-10-28T20:25:57.428Z,13.03
2016-10-28T20:27:03.719Z,12.93
2016-10-28T20:28:10.657Z,12.93
2016-10-28T20:29:17.547Z,12.94
2016-10-28T20:30:24.113Z,12.95
2016-10-28T20:31:34.428Z,12.95
2016-10-28T20:32:41.057Z,12.95
2016-10-28T20:35:08.557Z,12.99
2016-10-28T20:36:14.816Z,12.93
2016-10-28T20:37:36.301Z,13.01
2016-10-28T20:38:43.275Z,12.84
2016-10-28T20:39:49.572Z,12.98
2016-10-28T20:40:56.258Z,12.95
2016-10-28T20:42:02.375Z,12.9